createdAt,value
2022-08-19T00:01:37.841Z,11.45
2022-08-19T00:04:07.602Z,12.80
2022-08-19T00:06:37.186Z,9.52
2022-08-19T00:09:06.000Z,10.30
2022-08-19T00:11:33.236Z,11.52
2022-08-19T00:14:00.240Z,11.90
2022-08-19T00:16:28.788Z,11.30
2022-08-19T00:18:56.649Z,10.93
2022-08-19T00:21:30.482Z,11.27
2022-08-19T00:23:59.342Z,11.35
2022-08-19T00:26:27.941Z,13.60
2022-08-19T00:28:55.849Z,12.95
2022-08-19T00:31:23.005Z,16.50
2022-08-19T00:33:51.841Z,16.83
2022-08-19T00:36:19.091Z,14.27
2022-08-19T00:38:46.522Z,17.38
2022-08-19T00:41:22.442Z,17.42
2022-08-19T00:44:07.307Z,15.50
2022-08-19T00:46:37.712Z,13.85
2022-08-19T00:49:15.987Z,17.60
2022-08-19T00:51:45.903Z,13.90
2022-08-19T00:54:13.757Z,16.50
2022-08-19T00:56:42.227Z,16.00
2022-08-19T00:59:10.936Z,16.55
2022-08-19T01:01:43.226Z,29.77
2022-08-19T01:04:10.722Z,31.13
2022-08-19T01:06:39.249Z,44.08
2022-08-19T01:09:06.579Z,32.67
2022-08-19T01:11:39.209Z,37.90
2022-08-19T01:14:08.264Z,37.60
2022-08-19T01:16:38.358Z,40.22
2022-08-19T01:19:17.189Z,40.40
2022-08-19T01:21:54.215Z,40.75
2022-08-19T01:24:21.155Z,42.67
2022-08-19T01:26:49.389Z,44.20
2022-08-19T01:29:16.646Z,44.78
2022-08-19T01:31:43.900Z,48.67
2022-08-19T01:34:11.185Z,52.33
2022-08-19T01:36:46.797Z,47.55
2022-08-19T01:39:17.993Z,50.97
2022-08-19T01:41:45.039Z,49.55
2022-08-19T01:44:18.044Z,48.70
2022-08-19T01:46:48.534Z,53.70
2022-08-19T01:49:18.507Z,46.10
2022-08-19T01:51:45.739Z,50.35
2022-08-19T01:54:27.067Z,51.25
2022-08-19T01:57:00.756Z,49.50
2022-08-19T01:59:28.731Z,50.17
2022-08-19T02:01:56.269Z,48.03
2022-08-19T02:04:24.524Z,52.75
2022-08-19T02:06:51.877Z,53.00
2022-08-19T02:09:18.909Z,54.28
2022-08-19T02:11:45.904Z,53.90
2022-08-19T02:14:12.876Z,49.97
2022-08-19T02:16:41.738Z,59.53
2022-08-19T02:19:08.804Z,52.65
2022-08-19T02:21:36.389Z,49.38
2022-08-19T02:24:03.938Z,57.00
2022-08-19T02:26:31.327Z,50.17
2022-08-19T02:28:58.389Z,55.75
2022-08-19T02:31:29.130Z,53.85
2022-08-19T02:33:57.484Z,56.97
2022-08-19T02:36:25.616Z,54.25
2022-08-19T02:38:54.427Z,53.72
2022-08-19T02:41:27.327Z,59.30
2022-08-19T02:44:26.235Z,61.88
2022-08-19T02:46:45.874Z,57.22
2022-08-19T02:49:13.568Z,59.13
2022-08-19T02:51:43.575Z,55.78
2022-08-19T02:54:13.753Z,53.10
2022-08-19T02:56:42.693Z,60.33
2022-08-19T02:59:11.495Z,60.75
2022-08-19T03:01:43.700Z,59.78
2022-08-19T03:04:14.577Z,53.45
2022-08-19T03:06:44.910Z,58.50
2022-08-19T03:09:12.991Z,59.97
2022-08-19T03:11:40.795Z,58.83
2022-08-19T03:14:09.739Z,55.17
2022-08-19T03:16:49.098Z,54.97
2022-08-19T03:19:19.447Z,57.20
2022-08-19T03:21:47.343Z,64.25
2022-08-19T03:24:16.370Z,55.80
2022-08-19T03:26:59.792Z,57.28
2022-08-19T03:29:32.811Z,54.90
2022-08-19T03:32:02.181Z,55.78
2022-08-19T03:34:34.398Z,55.42
2022-08-19T03:37:06.569Z,53.45
2022-08-19T03:39:34.037Z,53.83
2022-08-19T03:42:32.609Z,51.83
2022-08-19T03:44:51.166Z,54.65
2022-08-19T03:47:18.230Z,53.22
2022-08-19T03:49:45.873Z,56.17
2022-08-19T03:52:12.959Z,61.97
2022-08-19T03:54:40.512Z,59.83
2022-08-19T03:57:07.826Z,57.40
2022-08-19T03:59:36.714Z,52.08
2022-08-19T04:02:10.261Z,52.65
2022-08-19T04:04:39.689Z,54.47
2022-08-19T04:07:07.208Z,57.88
2022-08-19T04:09:37.747Z,56.50
2022-08-19T04:12:06.638Z,62.75
2022-08-19T04:14:34.858Z,58.17
2022-08-19T04:17:05.886Z,54.05
2022-08-19T04:19:35.577Z,55.03
2022-08-19T04:22:03.455Z,55.10
2022-08-19T04:24:30.885Z,55.47
2022-08-19T04:26:58.062Z,59.85
2022-08-19T04:29:28.040Z,49.97
2022-08-19T04:31:56.871Z,55.40
2022-08-19T04:34:27.738Z,53.55
2022-08-19T04:36:56.726Z,53.13
2022-08-19T04:39:48.575Z,59.28
2022-08-19T04:42:35.716Z,54.72
2022-08-19T04:45:05.282Z,54.33
2022-08-19T04:47:46.962Z,52.20
2022-08-19T04:50:18.761Z,53.38
2022-08-19T04:52:45.914Z,51.85
2022-08-19T04:55:14.841Z,55.42
2022-08-19T04:57:41.811Z,49.72
2022-08-19T05:00:10.786Z,51.42
2022-08-19T05:02:38.503Z,51.17
2022-08-19T05:05:07.725Z,51.42
2022-08-19T05:07:35.332Z,55.40
2022-08-19T05:10:03.753Z,54.75
2022-08-19T05:12:30.789Z,49.97
2022-08-19T05:14:59.285Z,54.00
2022-08-19T05:17:28.957Z,56.17
2022-08-19T05:20:16.067Z,51.92
2022-08-19T05:22:44.761Z,50.75
2022-08-19T05:25:15.692Z,53.10
2022-08-19T05:27:43.553Z,49.67
2022-08-19T05:30:12.177Z,51.28
2022-08-19T05:32:40.312Z,51.75
2022-08-19T05:35:08.007Z,53.42
2022-08-19T05:37:35.386Z,48.22
2022-08-19T05:40:02.643Z,51.88
2022-08-19T05:42:29.748Z,51.72
2022-08-19T05:44:57.847Z,48.88
2022-08-19T05:47:24.960Z,51.25
2022-08-19T05:49:52.219Z,51.20
2022-08-19T05:52:25.728Z,52.88
2022-08-19T05:54:57.021Z,43.17
2022-08-19T05:57:25.569Z,51.17
2022-08-19T05:59:58.231Z,46.35
2022-08-19T06:02:29.144Z,45.17
2022-08-19T06:04:56.192Z,43.03
2022-08-19T06:07:23.955Z,42.95
2022-08-19T06:10:00.036Z,44.50
2022-08-19T06:12:34.264Z,39.75
2022-08-19T06:15:04.687Z,43.70
2022-08-19T06:17:32.691Z,37.55
2022-08-19T06:20:00.490Z,34.65
2022-08-19T06:22:28.821Z,39.58
2022-08-19T06:24:56.887Z,34.88
2022-08-19T06:27:24.699Z,33.83
2022-08-19T06:29:51.679Z,32.30
2022-08-19T06:32:20.155Z,33.75
2022-08-19T06:34:47.766Z,31.63
2022-08-19T06:37:15.188Z,27.48
2022-08-19T06:39:44.299Z,31.48
2022-08-19T06:42:14.429Z,28.83
2022-08-19T06:44:48.919Z,25.90
2022-08-19T06:47:23.768Z,34.72
2022-08-19T06:50:00.979Z,31.08
2022-08-19T06:52:28.827Z,25.80
2022-08-19T06:54:59.693Z,28.80
2022-08-19T06:57:27.584Z,34.55
2022-08-19T06:59:56.157Z,25.27
2022-08-19T07:02:27.381Z,29.90
2022-08-19T07:04:54.900Z,27.30
2022-08-19T07:07:23.434Z,24.95
2022-08-19T07:09:59.085Z,29.90
2022-08-19T07:12:38.265Z,21.80
2022-08-19T07:15:06.526Z,28.25
2022-08-19T07:17:34.454Z,30.42
2022-08-19T07:20:05.177Z,29.30
2022-08-19T07:22:40.630Z,30.67
2022-08-19T07:25:09.377Z,31.88
2022-08-19T07:27:36.463Z,34.05
2022-08-19T07:30:04.642Z,30.40
2022-08-19T07:32:32.515Z,31.15
2022-08-19T07:35:01.860Z,26.17
2022-08-19T07:37:33.079Z,24.67
2022-08-19T07:40:01.687Z,24.90
2022-08-19T07:42:30.891Z,23.98
2022-08-19T07:44:59.638Z,23.60
2022-08-19T07:47:49.585Z,24.70
2022-08-19T07:50:14.508Z,21.58
2022-08-19T07:52:41.572Z,23.17
2022-08-19T07:55:13.640Z,26.65
2022-08-19T07:57:58.798Z,17.48
2022-08-19T08:00:26.589Z,26.15
2022-08-19T08:02:55.774Z,18.35
2022-08-19T08:05:44.243Z,19.73
2022-08-19T08:08:33.786Z,16.60
2022-08-19T08:11:01.566Z,17.40
2022-08-19T08:13:29.276Z,19.73
2022-08-19T08:15:57.500Z,18.20
2022-08-19T08:18:27.810Z,19.00
2022-08-19T08:20:58.123Z,16.77
2022-08-19T08:23:28.282Z,17.80
2022-08-19T08:25:57.659Z,22.88
2022-08-19T08:28:26.332Z,16.98
2022-08-19T08:30:58.314Z,15.82
2022-08-19T08:33:34.216Z,23.50
2022-08-19T08:36:12.084Z,16.15
2022-08-19T08:41:20.780Z,17.33
2022-08-19T08:43:52.199Z,16.45
2022-08-19T08:46:44.992Z,14.77
2022-08-19T08:49:23.856Z,15.57
2022-08-19T08:52:04.875Z,13.77
2022-08-19T08:54:39.839Z,18.70
2022-08-19T08:57:15.351Z,17.23
2022-08-19T08:59:44.388Z,13.80
2022-08-19T09:02:11.328Z,17.67
2022-08-19T09:04:40.132Z,18.85
2022-08-19T09:07:35.268Z,21.35
2022-08-19T09:10:27.550Z,14.38
2022-08-19T09:13:23.391Z,16.63
2022-08-19T09:15:57.858Z,14.10
2022-08-19T09:18:25.216Z,11.98
2022-08-19T09:20:57.280Z,16.20
2022-08-19T09:23:27.063Z,16.70
2022-08-19T09:25:54.689Z,10.90
2022-08-19T09:28:22.619Z,12.50
2022-08-19T09:30:54.316Z,15.10
2022-08-19T09:33:21.261Z,9.85
2022-08-19T09:35:49.775Z,13.73
2022-08-19T09:38:20.749Z,10.75
2022-08-19T09:40:48.126Z,12.43
2022-08-19T09:43:15.178Z,11.60
2022-08-19T09:46:01.377Z,9.50
2022-08-19T09:48:28.494Z,9.50
2022-08-19T09:50:55.702Z,12.35
2022-08-19T09:53:25.351Z,7.35
2022-08-19T09:55:53.339Z,9.73
2022-08-19T09:58:24.675Z,9.10
2022-08-19T10:00:54.937Z,11.00
2022-08-19T10:03:25.548Z,13.57
2022-08-19T10:05:59.208Z,9.20
2022-08-19T10:08:29.652Z,9.45
2022-08-19T10:10:58.920Z,11.57
2022-08-19T10:13:28.764Z,20.02
2022-08-19T10:15:57.849Z,14.25
2022-08-19T10:18:26.581Z,7.25
2022-08-19T10:20:54.695Z,10.75
2022-08-19T10:23:22.359Z,10.48
2022-08-19T10:25:50.803Z,9.32
2022-08-19T10:28:19.222Z,9.93
2022-08-19T10:30:48.760Z,7.57
2022-08-19T10:33:27.099Z,8.27
2022-08-19T10:38:52.389Z,10.48
2022-08-19T10:41:25.380Z,7.22
2022-08-19T10:43:55.491Z,9.18
2022-08-19T10:46:24.451Z,8.30
2022-08-19T10:48:52.767Z,8.95
2022-08-19T10:51:47.877Z,7.25
2022-08-19T10:54:16.037Z,10.30
2022-08-19T10:56:56.232Z,7.68
2022-08-19T10:59:31.437Z,10.60
2022-08-19T11:02:02.620Z,9.27
2022-08-19T11:04:29.793Z,8.10
2022-08-19T11:06:57.619Z,8.60
2022-08-19T11:09:33.675Z,9.20
2022-08-19T11:12:02.978Z,10.38
2022-08-19T11:14:34.409Z,9.45
2022-08-19T11:17:02.235Z,10.80
2022-08-19T11:19:29.292Z,8.88
2022-08-19T11:21:57.508Z,7.03
2022-08-19T11:24:27.308Z,10.30
2022-08-19T11:27:00.157Z,10.25
2022-08-19T11:29:29.105Z,9.05
2022-08-19T11:31:56.724Z,9.73
2022-08-19T11:34:28.608Z,7.97
2022-08-19T11:36:59.307Z,9.35
2022-08-19T11:39:30.388Z,10.00
2022-08-19T11:41:59.548Z,11.98
2022-08-19T11:44:27.116Z,9.13
2022-08-19T11:46:54.272Z,10.77
2022-08-19T11:49:22.307Z,11.63
2022-08-19T11:51:51.814Z,11.23
2022-08-19T11:54:20.908Z,10.60
2022-08-19T11:56:50.208Z,8.05
2022-08-19T11:59:17.209Z,10.95
2022-08-19T12:01:44.712Z,7.85
2022-08-19T12:04:12.228Z,11.40
2022-08-19T12:06:41.625Z,13.07
2022-08-19T12:09:10.615Z,10.45
2022-08-19T12:11:39.449Z,10.23
2022-08-19T12:14:08.323Z,9.50
2022-08-19T12:16:44.790Z,11.73
2022-08-19T12:19:22.513Z,10.52
2022-08-19T12:21:50.787Z,9.00
2022-08-19T12:24:24.078Z,11.85
2022-08-19T12:26:52.997Z,10.73
2022-08-19T12:29:23.733Z,10.35
2022-08-19T12:31:51.850Z,6.82
2022-08-19T12:34:20.961Z,8.63
2022-08-19T12:36:50.510Z,9.98
2022-08-19T12:39:17.820Z,14.10
2022-08-19T12:41:51.644Z,13.93
2022-08-19T12:44:29.607Z,9.27
2022-08-19T12:46:59.670Z,6.35
2022-08-19T12:49:52.796Z,10.80
2022-08-19T12:52:19.890Z,7.63
2022-08-19T12:54:54.369Z,8.18
2022-08-19T12:57:32.995Z,10.98
2022-08-19T13:00:14.572Z,7.72
2022-08-19T13:02:45.594Z,8.15
2022-08-19T13:05:17.038Z,7.05
2022-08-19T13:07:47.217Z,7.15
2022-08-19T13:10:18.905Z,4.88
2022-08-19T13:12:48.294Z,7.35
2022-08-19T13:15:23.814Z,6.30
2022-08-19T13:17:53.421Z,3.27
2022-08-19T13:20:22.163Z,7.82
2022-08-19T13:22:49.505Z,4.55
2022-08-19T13:25:20.590Z,5.32
2022-08-19T13:27:49.267Z,4.97
2022-08-19T13:30:36.350Z,5.88
2022-08-19T13:33:12.778Z,5.13
2022-08-19T13:35:53.028Z,4.53
2022-08-19T13:38:23.304Z,5.35
2022-08-19T13:40:53.184Z,2.40
2022-08-19T13:43:23.836Z,1.77
2022-08-19T13:45:56.980Z,2.35
2022-08-19T13:48:26.391Z,4.18
2022-08-19T13:50:53.449Z,2.53
2022-08-19T13:53:20.720Z,3.80
2022-08-19T13:55:47.786Z,2.55
2022-08-19T13:58:15.678Z,3.15
2022-08-19T14:00:45.899Z,2.78
2022-08-19T14:03:13.454Z,2.40
2022-08-19T14:05:40.616Z,3.70
2022-08-19T14:08:07.569Z,2.55
2022-08-19T14:10:34.913Z,4.50
2022-08-19T14:13:04.617Z,8.85
2022-08-19T14:15:32.082Z,4.25
2022-08-19T14:17:59.219Z,5.70
2022-08-19T14:20:26.559Z,4.78
2022-08-19T14:22:55.879Z,3.28
2022-08-19T14:25:26.544Z,2.92
2022-08-19T14:27:53.888Z,3.92
2022-08-19T14:30:29.377Z,4.38
2022-08-19T14:33:01.933Z,3.20
2022-08-19T14:35:33.680Z,2.97
2022-08-19T14:38:00.843Z,3.33
2022-08-19T14:40:30.631Z,4.70
2022-08-19T14:43:02.226Z,4.75
2022-08-19T14:45:29.971Z,5.53
2022-08-19T14:47:57.130Z,5.25
2022-08-19T14:50:24.109Z,5.05
2022-08-19T14:52:51.571Z,3.85
2022-08-19T14:55:19.173Z,4.30
2022-08-19T14:57:46.561Z,4.07
2022-08-19T15:00:14.553Z,5.20
2022-08-19T15:02:47.434Z,2.00
2022-08-19T15:05:14.465Z,4.18
2022-08-19T15:07:42.194Z,3.67
2022-08-19T15:10:11.873Z,4.03
2022-08-19T15:12:41.390Z,3.60
2022-08-19T15:15:18.292Z,3.95
2022-08-19T15:20:19.123Z,2.70
2022-08-19T15:22:47.263Z,3.72
2022-08-19T15:25:17.008Z,4.15
2022-08-19T15:27:44.448Z,4.30
2022-08-19T15:30:13.014Z,6.13
2022-08-19T15:32:40.534Z,5.93
2022-08-19T15:35:08.753Z,43.40
2022-08-19T15:37:37.558Z,21.20
2022-08-19T15:40:06.244Z,7.32
2022-08-19T15:42:34.088Z,12.82
2022-08-19T15:45:04.132Z,6.72
2022-08-19T15:47:34.531Z,4.55
2022-08-19T15:50:11.320Z,1.13
2022-08-19T15:52:50.149Z,1.08
2022-08-19T15:55:32.426Z,2.05
2022-08-19T15:58:28.620Z,3.15
2022-08-19T16:01:20.590Z,0.65
2022-08-19T16:04:13.848Z,5.32
2022-08-19T16:06:47.477Z,1.50
2022-08-19T16:09:16.240Z,2.78
2022-08-19T16:11:46.092Z,2.58
2022-08-19T16:14:15.530Z,1.00
2022-08-19T16:16:46.884Z,2.78
2022-08-19T16:19:16.341Z,1.60
2022-08-19T16:21:50.206Z,1.75
2022-08-19T16:24:20.046Z,1.63
2022-08-19T16:26:48.501Z,1.10
2022-08-19T16:29:33.304Z,1.38
2022-08-19T16:32:03.718Z,3.63
2022-08-19T16:34:30.977Z,1.38
2022-08-19T16:36:58.092Z,2.33
2022-08-19T16:39:25.244Z,1.58
2022-08-19T16:41:52.211Z,5.05
2022-08-19T16:44:21.284Z,3.17
2022-08-19T16:46:55.701Z,3.28
2022-08-19T16:49:53.389Z,0.70
2022-08-19T16:52:19.338Z,1.92
2022-08-19T16:54:46.443Z,0.70
2022-08-19T16:57:13.830Z,1.08
2022-08-19T16:59:42.499Z,1.10
2022-08-19T17:02:15.702Z,1.25
2022-08-19T17:04:42.752Z,3.55
2022-08-19T17:07:10.605Z,2.70
2022-08-19T17:09:38.014Z,1.75
2022-08-19T17:12:05.735Z,1.63
2022-08-19T17:14:32.846Z,5.32
2022-08-19T17:16:59.908Z,2.28
2022-08-19T17:19:28.380Z,3.53
2022-08-19T17:21:56.342Z,2.85
2022-08-19T17:24:26.684Z,2.28
2022-08-19T17:26:53.613Z,1.75
2022-08-19T17:29:20.636Z,2.50
2022-08-19T17:31:47.602Z,2.90
2022-08-19T17:34:14.895Z,6.68
2022-08-19T17:36:42.127Z,3.53
2022-08-19T17:39:09.183Z,1.50
2022-08-19T17:41:36.278Z,4.05
2022-08-19T17:44:04.173Z,1.77
2022-08-19T17:46:31.417Z,2.78
2022-08-19T17:48:58.975Z,2.53
2022-08-19T17:51:40.881Z,4.00
2022-08-19T17:54:12.366Z,3.10
2022-08-19T17:56:39.721Z,4.32
2022-08-19T17:59:10.843Z,1.70
2022-08-19T18:01:52.579Z,5.32
2022-08-19T18:04:22.754Z,1.90
2022-08-19T18:06:53.067Z,4.13
2022-08-19T18:09:24.274Z,5.13
2022-08-19T18:11:53.598Z,7.97
2022-08-19T18:14:28.092Z,4.55
2022-08-19T18:16:59.973Z,3.08
2022-08-19T18:19:41.364Z,3.58
2022-08-19T18:22:11.223Z,3.45
2022-08-19T18:24:40.707Z,4.13
2022-08-19T18:27:07.687Z,3.67
2022-08-19T18:29:38.682Z,2.50
2022-08-19T18:32:09.304Z,2.90
2022-08-19T18:34:37.262Z,3.00
2022-08-19T18:37:04.516Z,3.85
2022-08-19T18:39:50.466Z,4.40
2022-08-19T18:42:37.440Z,8.90
2022-08-19T18:45:24.967Z,5.03
2022-08-19T18:48:23.997Z,3.42
2022-08-19T18:50:56.005Z,7.30
2022-08-19T18:53:23.405Z,6.43
2022-08-19T18:55:54.075Z,4.88
2022-08-19T18:58:26.119Z,6.45
2022-08-19T19:00:57.530Z,7.63
2022-08-19T19:03:26.343Z,7.68
2022-08-19T19:05:54.059Z,5.28
2022-08-19T19:08:27.276Z,9.73
2022-08-19T19:10:55.552Z,11.32
2022-08-19T19:13:22.905Z,6.40
2022-08-19T19:15:49.887Z,7.05
2022-08-19T19:18:16.919Z,9.38
2022-08-19T19:20:44.222Z,5.38
2022-08-19T19:23:11.366Z,11.25
2022-08-19T19:25:50.609Z,8.05
2022-08-19T19:28:30.705Z,8.25
2022-08-19T19:30:58.726Z,9.32
2022-08-19T19:33:27.724Z,10.52
2022-08-19T19:35:55.100Z,8.18
2022-08-19T19:38:22.145Z,7.60
2022-08-19T19:40:49.164Z,8.80
2022-08-19T19:43:17.272Z,7.28
2022-08-19T19:45:44.919Z,7.45
2022-08-19T19:48:13.830Z,7.97
2022-08-19T19:50:41.342Z,10.25
2022-08-19T19:53:08.415Z,8.60
2022-08-19T19:55:36.958Z,10.32
2022-08-19T19:58:07.236Z,9.30
2022-08-19T20:00:34.706Z,9.70
2022-08-19T20:03:02.081Z,9.13
2022-08-19T20:05:29.206Z,8.63
2022-08-19T20:08:15.162Z,8.55
2022-08-19T20:10:43.398Z,8.55
2022-08-19T20:13:12.005Z,9.18
2022-08-19T20:15:42.591Z,9.43
2022-08-19T20:18:11.252Z,10.85
2022-08-19T20:20:38.364Z,10.57
2022-08-19T20:23:05.526Z,10.68
2022-08-19T20:25:32.987Z,13.32
2022-08-19T20:28:01.477Z,10.75
2022-08-19T20:30:32.082Z,14.85
2022-08-19T20:33:00.441Z,9.70
2022-08-19T20:35:27.617Z,10.00
2022-08-19T20:37:58.249Z,9.38
2022-08-19T20:40:29.627Z,13.13
2022-08-19T20:42:56.926Z,11.93
2022-08-19T20:45:32.801Z,9.80
2022-08-19T20:48:03.136Z,10.68
2022-08-19T20:50:35.346Z,10.20
2022-08-19T20:53:09.066Z,10.77
2022-08-19T20:55:36.406Z,11.88
2022-08-19T20:58:04.006Z,10.52
2022-08-19T21:00:31.289Z,10.40
2022-08-19T21:02:58.238Z,11.07
2022-08-19T21:05:30.253Z,10.25
2022-08-19T21:07:57.853Z,10.10
2022-08-19T21:10:26.469Z,12.38
2022-08-19T21:12:53.709Z,11.65
2022-08-19T21:15:20.737Z,11.82
2022-08-19T21:17:48.775Z,11.40
2022-08-19T21:20:15.925Z,11.63
2022-08-19T21:22:43.076Z,11.70
2022-08-19T21:25:11.060Z,11.52
2022-08-19T21:27:38.389Z,13.68
2022-08-19T21:30:06.916Z,13.80
2022-08-19T21:32:33.900Z,13.20
2022-08-19T21:35:02.315Z,12.52
2022-08-19T21:37:29.832Z,11.93
2022-08-19T21:39:56.900Z,15.00
2022-08-19T21:42:24.489Z,10.25
2022-08-19T21:44:51.763Z,10.95
2022-08-19T21:47:18.776Z,14.25
2022-08-19T21:49:46.236Z,11.82
2022-08-19T21:52:13.606Z,10.63
2022-08-19T21:54:40.936Z,10.40
2022-08-19T21:57:10.354Z,11.07
2022-08-19T21:59:43.780Z,11.02
2022-08-19T22:02:20.381Z,10.82
2022-08-19T22:04:53.103Z,8.27
2022-08-19T22:07:22.078Z,11.57
2022-08-19T22:09:50.743Z,8.35
2022-08-19T22:12:27.632Z,12.07
2022-08-19T22:14:55.606Z,8.75
2022-08-19T22:17:23.540Z,8.40
2022-08-19T22:19:52.585Z,7.85
2022-08-19T22:22:26.412Z,8.93
2022-08-19T22:24:54.747Z,9.15
2022-08-19T22:27:21.828Z,13.25
2022-08-19T22:29:52.468Z,11.70
2022-08-19T22:32:28.174Z,8.30
2022-08-19T22:34:58.784Z,9.50
2022-08-19T22:37:27.737Z,7.80
2022-08-19T22:39:55.999Z,9.32
2022-08-19T22:42:24.971Z,6.93
2022-08-19T22:44:59.130Z,7.70
2022-08-19T22:47:27.178Z,8.27
2022-08-19T22:49:59.059Z,11.20
2022-08-19T22:52:26.169Z,7.72
2022-08-19T22:54:55.688Z,8.25
2022-08-19T22:57:23.879Z,6.43
2022-08-19T22:59:52.646Z,10.07
2022-08-19T23:02:25.042Z,8.55
2022-08-19T23:04:52.882Z,9.38
2022-08-19T23:07:23.568Z,9.00
2022-08-19T23:09:51.408Z,8.75
2022-08-19T23:12:31.337Z,5.05
2022-08-19T23:15:04.917Z,7.85
2022-08-19T23:17:32.010Z,8.68
2022-08-19T23:20:00.205Z,6.07
2022-08-19T23:22:27.389Z,7.18
2022-08-19T23:24:56.141Z,9.38
2022-08-19T23:27:42.086Z,5.55
2022-08-19T23:30:27.797Z,5.85
2022-08-19T23:32:55.914Z,8.23
2022-08-19T23:35:24.446Z,7.50
2022-08-19T23:37:52.295Z,4.28
2022-08-19T23:40:22.177Z,10.05
2022-08-19T23:42:50.667Z,5.30
2022-08-19T23:45:21.559Z,5.28
2022-08-19T23:47:51.109Z,7.85
2022-08-19T23:50:21.662Z,6.10
2022-08-19T23:52:54.353Z,5.53
2022-08-19T23:55:24.952Z,3.05
2022-08-19T23:57:52.177Z,7.10
